Terminal Aerodrome Forecast
Issued by NWS Jackson, KY

Home | Current Version | Previous Version | Text Only | Print | Product List | Glossary On
Versions: 1 2 3 4 5 6 7 8 9 10 11 12 13 14
000
FTUS43 KJKL 261700
TAFLOZ
TAF
KLOZ 261736Z 2618/2718 20007KT P6SM SCT250
     FM270000 VRB03KT P6SM SCT150 BKN250
     FM270600 18004KT P6SM VCTS SCT040CB BKN100
     FM271500 24010G20KT P6SM VCTS SCT040CB BKN100=

USA.gov is the U.S. government's official web portal to all federal, state and local government web resources and services.